Terminal Aerodrome Forecast
Issued by NWS

Current Version | Previous Version | Text Only | Print | Product List | Glossary On
Versions: 1 2 3 4 5 6 7 8 9 10 11 12 13 14 15 16
000
FTUS46 KHNX 171902 AAA
TAFBFL
TAF AMD
KBFL 171902Z 1719/1818 VRB04KT 5SM HZ SCT200
     FM181200 VRB03KT 4SM BR SCT080 BKN200=

USA.gov is the U.S. government's official web portal to all federal, state and local government web resources and services.